DAOR/CBH METAR and TAF weather

Enter ICAO airport designator
Station Type Date Time Source
DAOR METAR 2021/01/17 19:00 UTC NOAA

DAOR 171900Z 36002KT CAVOK 10/M12 Q1028


Station Type Date Time Source
DAOR Decoded METAR 2021/01/17 19:00 UTC NOAA

Bechar, Algeria (DAOR) 31-37N 002-14W 773M
Jan 17, 2021 - 02:00 PM EST / 2021.01.17 1900 UTC
Wind: from the N (360 degrees) at 2 MPH (2 KT):0
Visibility: greater than 7 mile(s):0
Temperature: 50 F (10 C)
Dew Point: 10 F (-12 C)
Relative Humidity: 19%
Pressure (altimeter): 30.36 in. Hg (1028 hPa)
ob: DAOR 171900Z 36002KT CAVOK 10/M12 Q1028
cycle: 19

Station Type Date Time Source
DAOR TAF 2017/11/09 18:03 UTC NOAA

TAF DAOR 091700Z 0918/1009 35010KT 6000 FEW033 SCT100
TEMPO 0918/0924 3000 BLSA PROB40
TEMPO 0918/0924 35020G35KT 2000 -TSRA FEW030CB

Example: see airport list